createdAt,value
2023-11-01T00:00:19.047Z,94.73
2023-11-01T00:02:51.020Z,94.95
2023-11-01T00:05:20.966Z,94.92
2023-11-01T00:07:50.438Z,94.72
2023-11-01T00:10:20.152Z,94.80
2023-11-01T00:12:49.798Z,95.12
2023-11-01T00:15:19.398Z,96.48
2023-11-01T00:17:50.496Z,97.63
2023-11-01T00:20:20.177Z,97.59
2023-11-01T00:22:49.979Z,97.70
2023-11-01T00:25:19.962Z,97.23
2023-11-01T00:27:49.512Z,96.38
2023-11-01T00:30:19.303Z,96.22
2023-11-01T00:32:51.551Z,95.87
2023-11-01T00:35:21.295Z,95.51
2023-11-01T00:37:50.903Z,95.67
2023-11-01T00:40:20.873Z,95.73
2023-11-01T00:42:50.633Z,95.74
2023-11-01T00:46:28.825Z,95.70
2023-11-01T00:48:58.502Z,95.48
2023-11-01T00:51:28.099Z,95.57
2023-11-01T00:53:57.720Z,95.43
2023-11-01T00:56:27.353Z,96.22
2023-11-01T00:58:57.139Z,96.05
2023-11-01T01:01:28.279Z,95.51
2023-11-01T01:03:58.033Z,96.03
2023-11-01T01:06:27.755Z,95.79
2023-11-01T01:08:57.841Z,95.30
2023-11-01T01:11:27.615Z,95.54
2023-11-01T01:13:57.486Z,95.35
2023-11-01T01:16:28.656Z,96.45
2023-11-01T01:18:58.369Z,96.11
2023-11-01T01:21:28.023Z,96.25
2023-11-01T01:23:57.638Z,96.29
2023-11-01T01:26:28.073Z,96.27
2023-11-01T01:28:57.551Z,96.71
2023-11-01T01:31:28.779Z,96.73
2023-11-01T01:33:58.437Z,96.70
2023-11-01T01:36:27.991Z,97.08
2023-11-01T01:38:57.621Z,97.52
2023-11-01T01:41:27.207Z,97.77
2023-11-01T01:43:56.994Z,97.27
2023-11-01T01:46:31.943Z,97.55
2023-11-01T01:49:02.400Z,97.63
2023-11-01T01:51:32.113Z,97.72
2023-11-01T01:54:02.315Z,97.44
2023-11-01T01:56:32.722Z,97.68
2023-11-01T01:59:02.477Z,97.99
2023-11-01T02:01:42.727Z,98.08
2023-11-01T02:04:15.375Z,97.83
2023-11-01T02:06:45.821Z,98.17
2023-11-01T02:09:17.084Z,98.26
2023-11-01T02:11:46.894Z,98.09
2023-11-01T02:14:16.898Z,98.23
2023-11-01T02:16:48.094Z,97.72
2023-11-01T02:19:19.937Z,98.09
2023-11-01T02:21:49.510Z,98.19
2023-11-01T02:24:20.586Z,98.02
2023-11-01T02:26:50.306Z,98.08
2023-11-01T02:29:19.777Z,98.19
2023-11-01T02:31:49.529Z,98.09
2023-11-01T02:34:19.207Z,98.02
2023-11-01T02:36:49.420Z,97.95
2023-11-01T02:39:20.616Z,98.39
2023-11-01T02:41:50.288Z,98.87
2023-11-01T02:44:19.908Z,98.60
2023-11-01T02:46:50.465Z,98.27
2023-11-01T02:49:20.047Z,98.46
2023-11-01T02:51:49.677Z,99.71
2023-11-01T02:54:20.612Z,100.00
2023-11-01T02:56:50.291Z,99.85
2023-11-01T02:59:20.075Z,100.00
2023-11-01T03:01:51.126Z,99.52
2023-11-01T03:04:20.684Z,99.17
2023-11-01T03:06:50.317Z,99.28
2023-11-01T03:09:21.520Z,98.95
2023-11-01T03:11:51.156Z,98.94
2023-11-01T03:14:20.837Z,98.80
2023-11-01T03:16:50.568Z,99.19
2023-11-01T03:19:20.107Z,99.37
2023-11-01T03:21:49.715Z,99.18
2023-11-01T03:24:20.946Z,99.23
2023-11-01T03:26:50.563Z,99.24
2023-11-01T03:29:20.128Z,99.47
2023-11-01T03:31:49.974Z,99.11
2023-11-01T03:34:19.520Z,99.22
2023-11-01T03:36:49.428Z,99.42
2023-11-01T03:39:22.250Z,99.02
2023-11-01T03:41:51.822Z,99.23
2023-11-01T03:47:28.920Z,99.38
2023-11-01T03:49:58.695Z,99.53
2023-11-01T03:52:28.324Z,99.63
2023-11-01T03:54:58.089Z,99.72
2023-11-01T03:57:27.552Z,99.98
2023-11-01T03:59:58.027Z,99.77
2023-11-01T04:02:29.190Z,99.31
2023-11-01T04:04:58.765Z,99.20
2023-11-01T04:07:28.291Z,99.10
2023-11-01T04:09:58.008Z,99.28
2023-11-01T04:12:27.622Z,99.68
2023-11-01T04:14:57.124Z,99.60
2023-11-01T04:17:28.203Z,97.95
2023-11-01T04:20:00.384Z,96.97
2023-11-01T04:22:30.287Z,96.54
2023-11-01T04:24:59.812Z,95.94
2023-11-01T04:27:29.250Z,95.75
2023-11-01T04:29:58.833Z,96.07
2023-11-01T04:32:31.516Z,95.61
2023-11-01T04:35:01.561Z,95.22
2023-11-01T04:37:31.260Z,95.56
2023-11-01T04:40:00.831Z,95.02
2023-11-01T04:42:30.717Z,94.02
2023-11-01T04:45:00.229Z,93.48
2023-11-01T04:47:31.906Z,93.15
2023-11-01T04:50:01.936Z,92.72
2023-11-01T04:52:31.946Z,92.35
2023-11-01T04:55:01.466Z,92.44
2023-11-01T04:57:31.243Z,92.76
2023-11-01T05:00:01.015Z,93.25
2023-11-01T05:02:32.016Z,93.67
2023-11-01T05:05:01.840Z,94.15
2023-11-01T05:07:31.537Z,94.48
2023-11-01T05:10:01.235Z,94.24
2023-11-01T05:12:31.828Z,94.40
2023-11-01T05:15:02.394Z,94.79
2023-11-01T05:17:33.537Z,94.42
2023-11-01T05:20:05.455Z,94.37
2023-11-01T05:22:35.068Z,94.57
2023-11-01T05:25:14.988Z,94.21
2023-11-01T05:27:45.385Z,93.59
2023-11-01T05:30:18.931Z,93.75
2023-11-01T05:32:50.420Z,93.02
2023-11-01T05:35:20.421Z,93.53
2023-11-01T05:37:50.046Z,93.89
2023-11-01T05:40:19.816Z,94.33
2023-11-01T05:42:50.369Z,95.72
2023-11-01T05:45:21.876Z,95.83
2023-11-01T05:47:54.278Z,96.55
2023-11-01T05:50:26.794Z,96.84
2023-11-01T05:52:58.188Z,96.51
2023-11-01T05:55:38.031Z,96.96
2023-11-01T05:58:18.213Z,97.41
2023-11-01T06:00:48.806Z,96.53
2023-11-01T06:03:21.484Z,96.06
2023-11-01T06:05:51.233Z,95.86
2023-11-01T06:08:20.989Z,95.58
2023-11-01T06:10:50.593Z,94.92
2023-11-01T06:13:20.510Z,94.43
2023-11-01T06:15:51.318Z,93.92
2023-11-01T06:18:23.511Z,93.22
2023-11-01T06:20:53.297Z,92.74
2023-11-01T06:23:23.061Z,92.26
2023-11-01T06:25:52.590Z,91.88
2023-11-01T06:28:22.618Z,91.74
2023-11-01T06:30:52.753Z,92.61
2023-11-01T06:33:23.898Z,92.91
2023-11-01T06:35:53.649Z,92.57
2023-11-01T06:38:23.338Z,92.45
2023-11-01T06:40:53.041Z,93.01
2023-11-01T06:43:22.616Z,93.14
2023-11-01T06:47:28.011Z,93.23
2023-11-01T06:49:57.582Z,93.69
2023-11-01T06:52:27.062Z,93.68
2023-11-01T06:54:56.749Z,93.27
2023-11-01T06:57:26.339Z,92.63
2023-11-01T06:59:55.962Z,89.87
2023-11-01T07:02:27.938Z,89.77
2023-11-01T07:04:57.531Z,88.44
2023-11-01T07:07:27.328Z,86.49
2023-11-01T07:09:58.046Z,84.78
2023-11-01T07:12:27.626Z,82.83
2023-11-01T07:14:57.281Z,82.37
2023-11-01T07:17:29.706Z,81.84
2023-11-01T07:20:00.273Z,80.28
2023-11-01T07:22:30.168Z,79.33
2023-11-01T07:24:59.750Z,78.32
2023-11-01T07:27:29.816Z,76.97
2023-11-01T07:29:59.550Z,76.11
2023-11-01T07:32:30.685Z,74.25
2023-11-01T07:35:00.419Z,73.25
2023-11-01T07:37:30.041Z,70.67
2023-11-01T07:40:00.664Z,70.54
2023-11-01T07:42:30.505Z,71.72
2023-11-01T07:45:00.088Z,72.25
2023-11-01T07:47:31.265Z,72.07
2023-11-01T07:50:01.125Z,68.64
2023-11-01T07:52:30.811Z,67.09
2023-11-01T07:55:00.565Z,67.59
2023-11-01T07:57:30.228Z,63.56
2023-11-01T07:59:59.801Z,61.87
2023-11-01T08:02:30.906Z,61.87
2023-11-01T08:05:00.707Z,61.63
2023-11-01T08:07:30.300Z,60.26
2023-11-01T08:09:59.967Z,60.01
2023-11-01T08:12:29.459Z,58.21
2023-11-01T08:14:59.070Z,59.12
2023-11-01T08:17:30.294Z,58.38
2023-11-01T08:20:02.657Z,58.69
2023-11-01T08:22:32.806Z,58.38
2023-11-01T08:25:02.360Z,57.28
2023-11-01T08:27:31.969Z,55.51
2023-11-01T08:30:01.639Z,54.69
2023-11-01T08:32:32.713Z,56.14
2023-11-01T08:35:02.268Z,55.89
2023-11-01T08:37:31.789Z,55.40
2023-11-01T08:40:01.475Z,54.84
2023-11-01T08:42:31.588Z,54.54
2023-11-01T08:45:01.036Z,53.52
2023-11-01T08:47:40.877Z,54.83
2023-11-01T08:50:13.711Z,54.64
2023-11-01T08:52:44.462Z,52.73
2023-11-01T08:55:14.966Z,51.98
2023-11-01T08:57:47.328Z,52.65
2023-11-01T09:00:17.788Z,54.12
2023-11-01T09:02:49.051Z,52.03
2023-11-01T09:05:20.240Z,48.67
2023-11-01T09:07:51.519Z,49.50
2023-11-01T09:10:21.504Z,51.98
2023-11-01T09:12:51.010Z,50.91
2023-11-01T09:15:20.686Z,49.69
2023-11-01T09:17:51.820Z,51.30
2023-11-01T09:20:21.322Z,49.95
2023-11-01T09:22:50.859Z,50.82
2023-11-01T09:25:20.481Z,48.85
2023-11-01T09:27:50.063Z,49.79
2023-11-01T09:30:19.852Z,49.65
2023-11-01T09:32:51.007Z,51.25
2023-11-01T09:35:20.551Z,49.64
2023-11-01T09:37:50.163Z,51.06
2023-11-01T09:40:20.581Z,52.16
2023-11-01T09:42:50.964Z,49.44
2023-11-01T09:47:29.244Z,46.82
2023-11-01T09:49:59.641Z,50.35
2023-11-01T09:52:29.600Z,48.07
2023-11-01T09:54:59.115Z,47.18
2023-11-01T09:57:31.628Z,47.06
2023-11-01T10:00:01.665Z,48.60
2023-11-01T10:02:33.791Z,47.56
2023-11-01T10:05:04.035Z,48.04
2023-11-01T10:07:33.677Z,48.26
2023-11-01T10:10:06.192Z,47.56
2023-11-01T10:12:35.874Z,49.60
2023-11-01T10:15:06.714Z,49.86
2023-11-01T10:17:37.928Z,50.34
2023-11-01T10:20:10.761Z,50.17
2023-11-01T10:22:40.467Z,53.19
2023-11-01T10:25:11.106Z,53.02
2023-11-01T10:27:42.654Z,54.46
2023-11-01T10:30:13.746Z,53.38
2023-11-01T10:32:58.534Z,53.73
2023-11-01T10:35:28.871Z,53.98
2023-11-01T10:38:00.630Z,52.82
2023-11-01T10:40:31.157Z,52.58
2023-11-01T10:43:02.459Z,54.13
2023-11-01T10:45:33.429Z,55.16
2023-11-01T10:48:07.642Z,55.55
2023-11-01T10:50:38.947Z,55.69
2023-11-01T10:53:10.383Z,56.44
2023-11-01T10:55:40.388Z,56.13
2023-11-01T10:58:15.868Z,57.18
2023-11-01T11:00:52.164Z,57.40
2023-11-01T11:03:41.244Z,57.43
2023-11-01T11:06:13.321Z,57.40
2023-11-01T11:08:43.027Z,57.69
2023-11-01T11:11:19.644Z,57.81
2023-11-01T11:13:52.644Z,57.71
2023-11-01T11:16:22.573Z,58.17
2023-11-01T11:19:00.366Z,58.29
2023-11-01T11:22:03.837Z,58.69
2023-11-01T11:24:58.605Z,58.01
2023-11-01T11:27:53.713Z,59.09
2023-11-01T11:31:13.668Z,58.86
2023-11-01T11:34:15.956Z,57.72
2023-11-01T11:37:09.941Z,56.75
2023-11-01T11:40:08.395Z,56.33
2023-11-01T11:42:54.117Z,56.17
2023-11-01T11:45:33.091Z,56.46
2023-11-01T11:48:04.990Z,55.93
2023-11-01T11:50:36.214Z,56.57
2023-11-01T11:53:05.998Z,56.29
2023-11-01T11:55:47.545Z,55.50
2023-11-01T11:58:18.344Z,55.57
2023-11-01T12:00:49.554Z,56.25
2023-11-01T12:03:26.901Z,56.33
2023-11-01T12:06:02.401Z,56.13
2023-11-01T12:08:41.969Z,54.54
2023-11-01T12:11:12.310Z,54.41
2023-11-01T12:13:49.697Z,53.59
2023-11-01T12:16:29.163Z,53.13
2023-11-01T12:19:19.782Z,53.49
2023-11-01T12:21:54.033Z,53.49
2023-11-01T12:24:27.730Z,53.44
2023-11-01T12:27:07.945Z,53.18
2023-11-01T12:29:48.504Z,52.65
2023-11-01T12:32:19.687Z,53.03
2023-11-01T12:35:07.207Z,51.91
2023-11-01T12:37:40.352Z,53.03
2023-11-01T12:40:13.704Z,52.58
2023-11-01T12:42:47.599Z,51.52
2023-11-01T12:47:30.041Z,49.93
2023-11-01T12:50:00.071Z,47.48
2023-11-01T12:52:29.655Z,48.02
2023-11-01T12:54:59.279Z,48.19
2023-11-01T12:57:28.921Z,46.13
2023-11-01T12:59:58.472Z,46.32
2023-11-01T13:02:32.044Z,45.39
2023-11-01T13:05:01.785Z,44.71
2023-11-01T13:07:32.777Z,45.42
2023-11-01T13:10:02.856Z,45.32
2023-11-01T13:12:33.071Z,45.57
2023-11-01T13:15:02.855Z,45.41
2023-11-01T13:17:33.908Z,45.50
2023-11-01T13:20:03.663Z,45.63
2023-11-01T13:22:33.258Z,46.30
2023-11-01T13:25:02.872Z,45.90
2023-11-01T13:27:33.703Z,47.35
2023-11-01T13:30:03.553Z,48.49
2023-11-01T13:32:34.710Z,47.74
2023-11-01T13:35:04.880Z,48.07
2023-11-01T13:37:34.347Z,47.36
2023-11-01T13:40:04.935Z,48.61
2023-11-01T13:42:34.841Z,48.35
2023-11-01T13:45:05.167Z,47.97
2023-11-01T13:47:36.876Z,48.50
2023-11-01T13:50:07.340Z,49.80
2023-11-01T13:52:37.118Z,50.00
2023-11-01T13:55:07.865Z,49.83
2023-11-01T13:57:37.475Z,50.71
2023-11-01T14:00:10.138Z,51.41
2023-11-01T14:02:41.265Z,51.33
2023-11-01T14:05:11.126Z,51.24
2023-11-01T14:07:40.672Z,52.20
2023-11-01T14:10:11.335Z,52.68
2023-11-01T14:12:46.316Z,52.56
2023-11-01T14:15:15.945Z,53.25
2023-11-01T14:17:47.060Z,53.71
2023-11-01T14:20:16.936Z,53.36
2023-11-01T14:22:49.988Z,54.06
2023-11-01T14:25:19.649Z,54.45
2023-11-01T14:27:50.696Z,53.17
2023-11-01T14:30:21.142Z,54.11
2023-11-01T14:32:52.313Z,54.37
2023-11-01T14:35:22.158Z,54.50
2023-11-01T14:37:51.728Z,54.93
2023-11-01T14:40:21.554Z,55.19
2023-11-01T14:42:51.487Z,55.42
2023-11-01T14:45:21.256Z,55.35
2023-11-01T14:47:52.975Z,55.60
2023-11-01T14:50:22.462Z,55.88
2023-11-01T14:52:52.183Z,56.20
2023-11-01T14:55:22.068Z,56.35
2023-11-01T14:57:51.687Z,57.11
2023-11-01T15:00:21.996Z,57.89
2023-11-01T15:02:53.035Z,58.53
2023-11-01T15:05:25.200Z,58.54
2023-11-01T15:07:55.064Z,58.66
2023-11-01T15:10:24.564Z,59.34
2023-11-01T15:12:54.080Z,59.50
2023-11-01T15:15:25.077Z,59.94
2023-11-01T15:17:56.646Z,60.35
2023-11-01T15:20:27.998Z,61.06
2023-11-01T15:22:57.908Z,61.29
2023-11-01T15:25:28.822Z,61.88
2023-11-01T15:27:58.227Z,62.30
2023-11-01T15:30:27.979Z,62.91
2023-11-01T15:32:59.108Z,63.03
2023-11-01T15:35:28.680Z,63.05
2023-11-01T15:37:58.206Z,62.41
2023-11-01T15:40:28.618Z,62.85
2023-11-01T15:42:58.436Z,63.68
2023-11-01T15:47:27.746Z,64.50
2023-11-01T15:49:57.369Z,64.62
2023-11-01T15:52:27.088Z,65.38
2023-11-01T15:54:57.506Z,66.75
2023-11-01T15:57:27.188Z,67.45
2023-11-01T15:59:56.768Z,67.75
2023-11-01T16:02:30.408Z,68.39
2023-11-01T16:05:01.989Z,68.65
2023-11-01T16:07:32.855Z,67.92
2023-11-01T16:10:03.928Z,68.47
2023-11-01T16:12:34.049Z,68.45
2023-11-01T16:15:04.677Z,68.54
2023-11-01T16:17:35.982Z,68.63
2023-11-01T16:20:06.859Z,68.64
2023-11-01T16:22:36.516Z,69.12
2023-11-01T16:25:06.993Z,69.42
2023-11-01T16:27:36.985Z,70.03
2023-11-01T16:30:09.225Z,69.45
2023-11-01T16:32:40.365Z,69.79
2023-11-01T16:35:11.183Z,69.65
2023-11-01T16:37:40.708Z,70.30
2023-11-01T16:40:11.505Z,70.86
2023-11-01T16:42:41.176Z,71.28
2023-11-01T16:45:12.878Z,72.05
2023-11-01T16:47:44.726Z,71.43
2023-11-01T16:50:14.348Z,71.51
2023-11-01T16:52:44.277Z,72.27
2023-11-01T16:55:13.898Z,72.20
2023-11-01T16:57:43.615Z,73.32
2023-11-01T17:00:14.679Z,73.62
2023-11-01T17:02:50.648Z,73.83
2023-11-01T17:05:20.883Z,73.27
2023-11-01T17:07:50.359Z,73.44
2023-11-01T17:10:19.887Z,73.39
2023-11-01T17:12:49.531Z,72.68
2023-11-01T17:15:25.730Z,73.07
2023-11-01T17:17:57.472Z,74.06
2023-11-01T17:20:27.321Z,73.78
2023-11-01T17:23:02.287Z,73.83
2023-11-01T17:26:31.828Z,73.93
2023-11-01T17:29:02.866Z,74.34
2023-11-01T17:31:44.293Z,74.88
2023-11-01T17:34:23.106Z,75.87
2023-11-01T17:36:53.299Z,75.89
2023-11-01T17:39:22.954Z,75.87
2023-11-01T17:42:02.450Z,75.85
2023-11-01T17:44:35.545Z,76.16
2023-11-01T17:47:09.079Z,76.32
2023-11-01T17:49:56.747Z,76.08
2023-11-01T17:52:40.217Z,77.29
2023-11-01T17:55:13.326Z,77.15
2023-11-01T17:57:43.088Z,77.17
2023-11-01T18:00:17.002Z,77.19
2023-11-01T18:03:22.111Z,77.14
2023-11-01T18:05:54.731Z,77.40
2023-11-01T18:08:31.072Z,77.81
2023-11-01T18:11:00.961Z,77.22
2023-11-01T18:13:32.240Z,77.86
2023-11-01T18:16:04.276Z,77.66
2023-11-01T18:18:51.292Z,78.18
2023-11-01T18:21:29.269Z,77.88
2023-11-01T18:24:01.565Z,78.06
2023-11-01T18:26:32.485Z,77.95
2023-11-01T18:29:03.750Z,78.72
2023-11-01T18:31:36.851Z,78.42
2023-11-01T18:34:08.871Z,79.02
2023-11-01T18:36:44.873Z,79.27
2023-11-01T18:39:14.758Z,79.49
2023-11-01T18:41:46.009Z,79.59
2023-11-01T18:47:34.325Z,80.60
2023-11-01T18:50:07.985Z,80.77
2023-11-01T18:52:37.636Z,81.06
2023-11-01T18:55:12.178Z,81.04
2023-11-01T18:57:42.636Z,81.34
2023-11-01T19:00:22.988Z,82.08
2023-11-01T19:03:05.572Z,82.33
2023-11-01T19:05:35.734Z,82.03
2023-11-01T19:08:05.841Z,82.49
2023-11-01T19:10:37.203Z,83.60
2023-11-01T19:13:07.198Z,83.43
2023-11-01T19:16:16.101Z,83.73
2023-11-01T19:18:50.105Z,83.60
2023-11-01T19:21:20.144Z,83.85
2023-11-01T19:23:50.281Z,84.26
2023-11-01T19:26:24.500Z,85.07
2023-11-01T19:28:54.887Z,86.20
2023-11-01T19:31:24.622Z,86.44
2023-11-01T19:33:56.169Z,86.40
2023-11-01T19:36:27.325Z,86.31
2023-11-01T19:38:56.969Z,86.90
2023-11-01T19:41:26.521Z,87.33
2023-11-01T19:44:00.009Z,87.90
2023-11-01T19:46:30.191Z,88.05
2023-11-01T19:49:01.410Z,88.18
2023-11-01T19:51:31.106Z,88.81
2023-11-01T19:54:00.652Z,90.02
2023-11-01T19:56:30.268Z,90.19
2023-11-01T19:59:00.604Z,90.30
2023-11-01T20:01:32.116Z,90.10
2023-11-01T20:04:03.509Z,90.04
2023-11-01T20:06:33.108Z,90.07
2023-11-01T20:09:02.783Z,89.92
2023-11-01T20:11:32.460Z,90.37
2023-11-01T20:14:02.688Z,90.24
2023-11-01T20:16:32.364Z,90.34
2023-11-01T20:19:03.512Z,90.61
2023-11-01T20:21:33.816Z,91.07
2023-11-01T20:24:05.337Z,91.18
2023-11-01T20:26:35.023Z,91.35
2023-11-01T20:29:05.489Z,91.59
2023-11-01T20:31:35.866Z,91.42
2023-11-01T20:34:06.954Z,91.71
2023-11-01T20:36:36.661Z,91.71
2023-11-01T20:39:06.930Z,92.23
2023-11-01T20:41:37.336Z,92.36
2023-11-01T20:44:07.491Z,92.27
2023-11-01T20:46:37.272Z,92.53
2023-11-01T20:49:11.554Z,92.68
2023-11-01T20:51:41.211Z,93.03
2023-11-01T20:54:11.001Z,92.90
2023-11-01T20:56:41.252Z,92.74
2023-11-01T20:59:10.787Z,92.89
2023-11-01T21:01:40.393Z,93.26
2023-11-01T21:04:11.440Z,93.19
2023-11-01T21:06:41.242Z,93.38
2023-11-01T21:09:12.360Z,92.85
2023-11-01T21:11:43.795Z,93.06
2023-11-01T21:14:13.278Z,93.16
2023-11-01T21:16:44.048Z,93.38
2023-11-01T21:19:15.337Z,93.94
2023-11-01T21:21:45.140Z,94.00
2023-11-01T21:24:19.913Z,94.45
2023-11-01T21:26:49.967Z,95.10
2023-11-01T21:29:19.486Z,94.88
2023-11-01T21:31:49.194Z,94.62
2023-11-01T21:34:20.416Z,94.57
2023-11-01T21:36:51.757Z,94.93
2023-11-01T21:39:21.502Z,94.56
2023-11-01T21:41:51.258Z,94.34
2023-11-01T21:47:38.228Z,94.85
2023-11-01T21:50:52.364Z,95.05
2023-11-01T21:53:23.904Z,94.68
2023-11-01T21:55:56.395Z,95.38
2023-11-01T21:58:27.143Z,94.81
2023-11-01T22:01:00.156Z,95.28
2023-11-01T22:03:42.824Z,95.09
2023-11-01T22:06:16.741Z,95.08
2023-11-01T22:09:02.254Z,95.31
2023-11-01T22:11:34.426Z,95.78
2023-11-01T22:14:09.292Z,95.26
2023-11-01T22:16:40.004Z,94.64
2023-11-01T22:19:33.921Z,94.57
2023-11-01T22:22:06.845Z,94.16
2023-11-01T22:24:40.924Z,94.59
2023-11-01T22:27:13.160Z,94.21
2023-11-01T22:29:47.944Z,94.65
2023-11-01T22:32:25.842Z,94.77
2023-11-01T22:34:57.686Z,95.14
2023-11-01T22:37:29.727Z,95.55
2023-11-01T22:39:59.847Z,95.31
2023-11-01T22:42:33.188Z,95.83
2023-11-01T22:45:03.861Z,95.43
2023-11-01T22:47:33.705Z,95.03
2023-11-01T22:50:04.826Z,95.12
2023-11-01T22:52:34.368Z,95.14
2023-11-01T22:55:04.767Z,95.31
2023-11-01T22:57:34.345Z,95.67
2023-11-01T23:00:08.098Z,95.13
2023-11-01T23:02:38.293Z,94.84
2023-11-01T23:05:10.309Z,94.88
2023-11-01T23:07:39.953Z,94.51
2023-11-01T23:10:10.940Z,94.47
2023-11-01T23:12:40.942Z,94.12
2023-11-01T23:15:12.270Z,94.50
2023-11-01T23:17:42.535Z,94.34
2023-11-01T23:20:15.598Z,94.38
2023-11-01T23:22:45.187Z,94.38
2023-11-01T23:25:14.664Z,94.42
2023-11-01T23:27:44.315Z,94.79
2023-11-01T23:30:44.765Z,94.81
2023-11-01T23:33:14.356Z,94.89
2023-11-01T23:35:46.548Z,95.16
2023-11-01T23:38:17.249Z,94.70
2023-11-01T23:40:46.845Z,94.99
2023-11-01T23:43:17.402Z,94.51
2023-11-01T23:46:17.141Z,95.22
2023-11-01T23:48:48.678Z,95.80
2023-11-01T23:51:59.708Z,95.24
2023-11-01T23:54:30.666Z,95.47
2023-11-01T23:57:01.057Z,95.04
2023-11-01T23:59:31.546Z,95.74
